KOEB

Branch County Memorial Airport

Coldwater, Michigan, USA
METAR KOEB 182016Z AUTO 34006KT 10SM OVC021 00/M04 A3013 RMK AO2 T10031039
Observed Flight Rules
Jan-18 @ 20:16 UTC (16 minutes ago) Marginal Visual Flight Rules
Wind Visibility Clouds
340° at 6 knots 10 miles
  • Overcast at 2,100' AGL
Temperatures Readings
Current -0°C / 32°F
Dewpoint -4°C / 25°F
Humidity 75%
Altimeter 30.13" Hg
Pressure 1020.32 hPa
Elevation 292
METAR KOEB 182016Z AUTO 34006KT 10SM OVC021 00/M04 A3013 RMK AO2 T10031039
Observed Flight Rules
Jan-18 @ 20:16 UTC
(16 minutes ago)
MVFR
Wind Visibility
340° at 6 knots 10 miles
Clouds
  • Overcast at 2,100' AGL
Temperature Dewpoint
-0°C / 32°F -4°C / 25°F
Humidity Altimeter Pressure
75% 30.13" Hg 1020.32 hPa